createdAt,value
2023-02-09T00:00:14.518Z,44.40
2023-02-09T00:01:14.533Z,44.10
2023-02-09T00:03:44.923Z,47.40
2023-02-09T00:04:44.859Z,46.40
2023-02-09T00:05:44.860Z,47.00
2023-02-09T00:06:44.852Z,44.80
2023-02-09T00:07:44.858Z,44.90
2023-02-09T00:08:44.822Z,35.90
2023-02-09T00:09:44.816Z,40.10
2023-02-09T00:10:45.035Z,36.60
2023-02-09T00:11:44.803Z,39.70
2023-02-09T00:12:44.782Z,40.60
2023-02-09T00:13:44.788Z,38.20
2023-02-09T00:14:44.753Z,39.40
2023-02-09T00:15:44.753Z,37.20
2023-02-09T00:16:44.842Z,40.00
2023-02-09T00:17:44.761Z,46.40
2023-02-09T00:18:44.725Z,46.60
2023-02-09T00:19:44.706Z,45.70
2023-02-09T00:20:45.035Z,41.50
2023-02-09T00:21:44.685Z,43.80
2023-02-09T00:22:44.682Z,39.60
2023-02-09T00:23:44.663Z,36.80
2023-02-09T00:24:44.650Z,38.80
2023-02-09T00:25:44.647Z,36.70
2023-02-09T00:26:44.660Z,38.30
2023-02-09T00:27:44.631Z,36.80
2023-02-09T00:28:44.610Z,33.80
2023-02-09T00:29:44.603Z,34.10
2023-02-09T00:30:44.918Z,33.30
2023-02-09T00:31:44.628Z,35.40
2023-02-09T00:32:44.581Z,32.30
2023-02-09T00:33:44.560Z,36.50
2023-02-09T00:34:44.549Z,36.30
2023-02-09T00:35:44.533Z,33.40
2023-02-09T00:36:44.533Z,36.50
2023-02-09T00:37:44.514Z,37.50
2023-02-09T00:38:44.540Z,43.30
2023-02-09T00:39:44.497Z,50.40
2023-02-09T00:40:44.874Z,49.30
2023-02-09T00:41:44.494Z,51.00
2023-02-09T00:42:44.461Z,40.80
2023-02-09T00:43:44.475Z,44.00
2023-02-09T00:44:44.439Z,53.50
2023-02-09T00:45:44.460Z,61.90
2023-02-09T00:46:44.416Z,51.90
2023-02-09T00:47:44.414Z,53.40
2023-02-09T00:48:44.413Z,48.00
2023-02-09T00:49:44.393Z,46.70
2023-02-09T00:50:44.823Z,48.80
2023-02-09T00:51:44.370Z,44.80
2023-02-09T00:52:44.378Z,47.90
2023-02-09T00:53:44.365Z,43.60
2023-02-09T00:54:44.341Z,41.80
2023-02-09T00:55:44.323Z,46.70
2023-02-09T00:56:44.318Z,49.10
2023-02-09T00:57:44.303Z,47.70
2023-02-09T00:58:44.315Z,46.10
2023-02-09T00:59:44.284Z,42.40
2023-02-09T01:00:44.723Z,45.20
2023-02-09T01:01:44.264Z,43.10
2023-02-09T01:02:44.245Z,40.90
2023-02-09T01:03:44.249Z,42.40
2023-02-09T01:04:44.269Z,40.80
2023-02-09T01:05:44.218Z,41.00
2023-02-09T01:06:44.203Z,42.50
2023-02-09T01:07:44.220Z,40.40
2023-02-09T01:08:44.195Z,39.90
2023-02-09T01:09:44.176Z,34.20
2023-02-09T01:10:44.524Z,37.60
2023-02-09T01:11:44.158Z,35.60
2023-02-09T01:12:44.148Z,39.60
2023-02-09T01:13:44.146Z,38.30
2023-02-09T01:14:44.115Z,35.20
2023-02-09T01:15:44.115Z,39.80
2023-02-09T01:16:44.113Z,43.60
2023-02-09T01:17:44.090Z,40.20
2023-02-09T01:18:44.103Z,39.80
2023-02-09T01:19:44.069Z,40.40
2023-02-09T01:20:44.496Z,36.40
2023-02-09T01:21:44.052Z,35.90
2023-02-09T01:22:44.031Z,36.00
2023-02-09T01:23:45.189Z,35.80
2023-02-09T01:24:45.154Z,39.20
2023-02-09T01:25:45.135Z,37.00
2023-02-09T01:26:45.165Z,35.00
2023-02-09T01:27:45.157Z,36.60
2023-02-09T01:28:45.134Z,38.80
2023-02-09T01:29:45.097Z,40.40
2023-02-09T01:30:45.512Z,39.30
2023-02-09T01:31:45.177Z,36.90
2023-02-09T01:32:45.083Z,34.90
2023-02-09T01:33:45.075Z,33.20
2023-02-09T01:34:45.150Z,35.40
2023-02-09T01:35:45.057Z,30.80
2023-02-09T01:36:45.044Z,31.70
2023-02-09T01:37:45.038Z,34.40
2023-02-09T01:38:45.009Z,34.70
2023-02-09T01:39:45.042Z,32.20
2023-02-09T01:40:45.361Z,37.60
2023-02-09T01:41:44.974Z,34.40
2023-02-09T01:42:44.984Z,39.10
2023-02-09T01:43:44.995Z,35.60
2023-02-09T01:44:44.961Z,33.80
2023-02-09T01:45:44.950Z,35.00
2023-02-09T01:46:44.933Z,35.30
2023-02-09T01:47:44.933Z,34.30
2023-02-09T01:48:44.946Z,33.00
2023-02-09T01:49:44.895Z,31.80
2023-02-09T01:50:45.179Z,32.70
2023-02-09T01:51:44.902Z,31.70
2023-02-09T01:52:44.912Z,31.90
2023-02-09T01:53:44.863Z,30.50
2023-02-09T01:54:44.863Z,30.90
2023-02-09T01:55:44.849Z,27.70
2023-02-09T01:56:44.841Z,31.10
2023-02-09T01:57:44.825Z,31.90
2023-02-09T01:58:44.840Z,32.60
2023-02-09T01:59:44.813Z,28.60
2023-02-09T02:00:45.075Z,29.80
2023-02-09T02:01:44.856Z,29.90
2023-02-09T02:02:44.848Z,30.30
2023-02-09T02:03:44.787Z,31.20
2023-02-09T02:04:44.766Z,29.00
2023-02-09T02:05:44.804Z,32.40
2023-02-09T02:06:44.756Z,29.90
2023-02-09T02:07:44.750Z,32.30
2023-02-09T02:08:44.735Z,33.00
2023-02-09T02:09:44.729Z,35.80
2023-02-09T02:10:44.993Z,32.60
2023-02-09T02:11:44.704Z,34.20
2023-02-09T02:12:44.669Z,36.10
2023-02-09T02:13:44.699Z,34.30
2023-02-09T02:14:44.679Z,31.20
2023-02-09T02:15:44.728Z,32.00
2023-02-09T02:16:44.656Z,31.10
2023-02-09T02:17:44.636Z,33.50
2023-02-09T02:18:44.639Z,33.60
2023-02-09T02:19:44.620Z,34.30
2023-02-09T02:20:44.867Z,35.30
2023-02-09T02:21:44.597Z,34.30
2023-02-09T02:22:44.590Z,34.00
2023-02-09T02:23:44.622Z,33.10
2023-02-09T02:24:44.546Z,35.20
2023-02-09T02:25:44.546Z,31.80
2023-02-09T02:26:44.531Z,32.80
2023-02-09T02:27:44.584Z,30.10
2023-02-09T02:28:44.554Z,32.10
2023-02-09T02:29:44.544Z,30.40
2023-02-09T02:30:44.965Z,31.20
2023-02-09T02:31:44.543Z,28.30
2023-02-09T02:32:44.474Z,27.60
2023-02-09T02:33:44.467Z,32.30
2023-02-09T02:34:45.515Z,32.80
2023-02-09T02:35:44.437Z,36.90
2023-02-09T02:36:44.451Z,31.80
2023-02-09T02:37:44.429Z,31.10
2023-02-09T02:38:44.461Z,30.30
2023-02-09T02:39:44.446Z,29.70
2023-02-09T02:40:44.727Z,29.40
2023-02-09T02:41:44.405Z,30.60
2023-02-09T02:42:44.388Z,29.80
2023-02-09T02:43:44.387Z,29.10
2023-02-09T02:44:44.396Z,31.30
2023-02-09T02:45:44.406Z,30.60
2023-02-09T02:46:44.429Z,31.40
2023-02-09T02:47:44.337Z,29.90
2023-02-09T02:48:44.336Z,33.80
2023-02-09T02:49:44.337Z,29.40
2023-02-09T02:50:44.745Z,30.10
2023-02-09T02:51:44.297Z,27.50
2023-02-09T02:52:44.303Z,31.30
2023-02-09T02:53:44.274Z,32.70
2023-02-09T02:54:44.280Z,32.50
2023-02-09T02:55:44.245Z,31.60
2023-02-09T02:56:44.260Z,29.40
2023-02-09T02:57:44.232Z,30.50
2023-02-09T02:58:44.239Z,33.50
2023-02-09T02:59:44.248Z,32.00
2023-02-09T03:00:44.542Z,31.80
2023-02-09T03:01:44.257Z,27.50
2023-02-09T03:02:44.161Z,26.50
2023-02-09T03:03:44.191Z,27.50
2023-02-09T03:04:44.194Z,30.70
2023-02-09T03:05:44.221Z,33.30
2023-02-09T03:06:44.145Z,30.20
2023-02-09T03:07:44.172Z,30.60
2023-02-09T03:08:44.132Z,30.60
2023-02-09T03:09:44.130Z,29.70
2023-02-09T03:10:44.555Z,30.30
2023-02-09T03:11:44.119Z,32.20
2023-02-09T03:12:44.094Z,30.30
2023-02-09T03:13:44.100Z,29.40
2023-02-09T03:14:44.102Z,29.60
2023-02-09T03:15:44.103Z,32.50
2023-02-09T03:16:44.072Z,28.70
2023-02-09T03:17:44.056Z,31.60
2023-02-09T03:18:44.062Z,30.70
2023-02-09T03:19:44.027Z,27.60
2023-02-09T03:20:44.268Z,33.20
2023-02-09T03:21:43.991Z,32.30
2023-02-09T03:22:43.982Z,31.40
2023-02-09T03:23:44.017Z,30.90
2023-02-09T03:24:43.982Z,29.60
2023-02-09T03:25:43.983Z,27.20
2023-02-09T03:26:43.922Z,27.70
2023-02-09T03:27:43.939Z,28.10
2023-02-09T03:28:43.916Z,27.60
2023-02-09T03:29:43.944Z,30.10
2023-02-09T03:30:44.368Z,27.70
2023-02-09T03:31:43.942Z,28.20
2023-02-09T03:32:43.901Z,29.80
2023-02-09T03:33:43.864Z,27.50
2023-02-09T03:34:43.892Z,29.50
2023-02-09T03:35:43.844Z,30.10
2023-02-09T03:36:43.858Z,27.90
2023-02-09T03:37:43.837Z,27.10
2023-02-09T03:38:43.817Z,30.40
2023-02-09T03:39:43.809Z,28.50
2023-02-09T03:40:44.123Z,29.50
2023-02-09T03:41:43.787Z,35.10
2023-02-09T03:42:43.765Z,32.00
2023-02-09T03:43:43.760Z,31.30
2023-02-09T03:44:43.758Z,31.80
2023-02-09T03:45:43.772Z,31.10
2023-02-09T03:46:43.845Z,26.80
2023-02-09T03:47:43.720Z,27.10
2023-02-09T03:48:43.714Z,30.90
2023-02-09T03:49:43.704Z,29.80
2023-02-09T03:50:44.052Z,30.60
2023-02-09T03:51:43.697Z,32.00
2023-02-09T03:52:43.673Z,33.60
2023-02-09T03:53:43.667Z,31.10
2023-02-09T03:54:43.649Z,29.40
2023-02-09T03:55:43.654Z,28.20
2023-02-09T03:56:43.620Z,30.30
2023-02-09T03:57:43.632Z,33.40
2023-02-09T03:58:43.635Z,30.90
2023-02-09T03:59:43.597Z,31.30
2023-02-09T04:00:43.901Z,26.70
2023-02-09T04:01:44.598Z,30.10
2023-02-09T04:02:43.604Z,28.60
2023-02-09T04:03:43.574Z,27.70
2023-02-09T04:04:43.564Z,31.10
2023-02-09T04:05:43.555Z,28.60
2023-02-09T04:06:43.537Z,29.60
2023-02-09T04:07:43.509Z,29.80
2023-02-09T04:08:43.536Z,30.50
2023-02-09T04:09:43.503Z,29.70
2023-02-09T04:10:43.749Z,30.70
2023-02-09T04:11:43.488Z,34.20
2023-02-09T04:12:43.459Z,29.10
2023-02-09T04:13:43.456Z,31.00
2023-02-09T04:14:43.474Z,31.70
2023-02-09T04:15:43.436Z,32.20
2023-02-09T04:16:43.442Z,31.90
2023-02-09T04:17:43.445Z,33.20
2023-02-09T04:18:43.405Z,30.70
2023-02-09T04:19:43.408Z,30.50
2023-02-09T04:20:43.603Z,35.60
2023-02-09T04:21:43.372Z,35.40
2023-02-09T04:22:43.359Z,32.20
2023-02-09T04:23:43.352Z,36.50
2023-02-09T04:24:43.340Z,35.10
2023-02-09T04:25:43.355Z,35.70
2023-02-09T04:26:43.343Z,39.80
2023-02-09T04:27:43.310Z,39.50
2023-02-09T04:28:43.296Z,38.10
2023-02-09T04:29:43.293Z,38.40
2023-02-09T04:30:43.495Z,35.00
2023-02-09T04:31:43.322Z,34.30
2023-02-09T04:32:43.270Z,32.20
2023-02-09T04:33:43.246Z,35.40
2023-02-09T04:34:43.282Z,30.60
2023-02-09T04:35:43.255Z,36.40
2023-02-09T04:36:43.218Z,32.50
2023-02-09T04:37:43.206Z,35.40
2023-02-09T04:38:43.195Z,32.60
2023-02-09T04:39:43.202Z,38.50
2023-02-09T04:40:43.516Z,35.30
2023-02-09T04:41:43.175Z,31.60
2023-02-09T04:42:43.187Z,33.70
2023-02-09T04:43:43.157Z,35.00
2023-02-09T04:44:43.136Z,31.40
2023-02-09T04:45:43.156Z,36.00
2023-02-09T04:46:45.413Z,32.90
2023-02-09T04:47:43.101Z,31.00
2023-02-09T04:48:43.109Z,32.70
2023-02-09T04:49:43.103Z,35.60
2023-02-09T04:50:43.524Z,34.90
2023-02-09T04:51:43.072Z,34.50
2023-02-09T04:52:43.055Z,34.50
2023-02-09T04:53:43.096Z,31.40
2023-02-09T04:54:43.051Z,28.70
2023-02-09T04:55:43.021Z,29.10
2023-02-09T04:56:43.036Z,29.20
2023-02-09T04:57:43.023Z,31.20
2023-02-09T04:58:42.994Z,29.40
2023-02-09T04:59:42.996Z,30.60
2023-02-09T05:00:43.177Z,30.90
2023-02-09T05:01:42.980Z,29.70
2023-02-09T05:02:43.978Z,28.70
2023-02-09T05:03:42.991Z,31.20
2023-02-09T05:04:42.939Z,29.90
2023-02-09T05:05:42.930Z,29.30
2023-02-09T05:06:43.003Z,27.80
2023-02-09T05:07:42.922Z,30.50
2023-02-09T05:08:42.891Z,31.40
2023-02-09T05:09:42.885Z,31.90
2023-02-09T05:10:42.902Z,29.10
2023-02-09T05:11:42.902Z,29.70
2023-02-09T05:12:42.857Z,30.30
2023-02-09T05:13:42.852Z,31.60
2023-02-09T05:14:42.842Z,33.00
2023-02-09T05:15:42.835Z,34.20
2023-02-09T05:16:42.949Z,35.70
2023-02-09T05:17:42.815Z,33.50
2023-02-09T05:18:42.795Z,33.60
2023-02-09T05:19:42.801Z,32.90
2023-02-09T05:20:42.836Z,32.30
2023-02-09T05:21:42.788Z,39.80
2023-02-09T05:22:42.757Z,30.40
2023-02-09T05:23:42.792Z,29.30
2023-02-09T05:24:42.737Z,25.80
2023-02-09T05:25:42.730Z,29.80
2023-02-09T05:26:42.764Z,29.60
2023-02-09T05:27:42.758Z,30.10
2023-02-09T05:28:42.775Z,34.50
2023-02-09T05:29:42.766Z,31.30
2023-02-09T05:30:42.895Z,30.00
2023-02-09T05:31:42.883Z,34.00
2023-02-09T05:32:42.813Z,32.50
2023-02-09T05:33:42.850Z,33.90
2023-02-09T05:34:42.745Z,30.00
2023-02-09T05:35:42.768Z,31.50
2023-02-09T05:36:42.873Z,29.30
2023-02-09T05:37:42.727Z,38.70
2023-02-09T05:38:42.800Z,49.80
2023-02-09T05:39:42.659Z,54.40
2023-02-09T05:40:45.041Z,48.80
2023-02-09T05:41:42.795Z,52.70
2023-02-09T05:42:42.758Z,45.70
2023-02-09T05:43:42.732Z,41.50
2023-02-09T05:44:42.639Z,41.40
2023-02-09T05:45:42.644Z,36.90
2023-02-09T05:46:42.693Z,41.00
2023-02-09T05:47:42.621Z,46.20
2023-02-09T05:48:42.515Z,54.00
2023-02-09T05:49:42.537Z,49.60
2023-02-09T05:50:42.518Z,41.70
2023-02-09T05:51:42.508Z,41.10
2023-02-09T05:52:42.499Z,38.40
2023-02-09T05:53:42.514Z,40.10
2023-02-09T05:54:42.468Z,40.60
2023-02-09T05:55:42.473Z,40.70
2023-02-09T05:56:42.439Z,45.50
2023-02-09T05:57:42.480Z,45.00
2023-02-09T05:58:42.404Z,43.40
2023-02-09T05:59:42.399Z,37.50
2023-02-09T06:00:42.370Z,36.50
2023-02-09T06:01:42.366Z,36.30
2023-02-09T06:02:42.468Z,36.60
2023-02-09T06:03:42.403Z,42.40
2023-02-09T06:04:42.347Z,41.60
2023-02-09T06:05:42.357Z,46.10
2023-02-09T06:06:42.342Z,40.80
2023-02-09T06:07:42.316Z,48.00
2023-02-09T06:08:42.305Z,40.50
2023-02-09T06:09:42.306Z,40.10
2023-02-09T06:10:42.296Z,43.80
2023-02-09T06:11:42.269Z,38.30
2023-02-09T06:12:42.303Z,38.50
2023-02-09T06:13:42.268Z,43.40
2023-02-09T06:14:42.237Z,40.30
2023-02-09T06:15:42.286Z,44.30
2023-02-09T06:16:42.221Z,46.90
2023-02-09T06:17:42.218Z,43.40
2023-02-09T06:18:42.346Z,40.70
2023-02-09T06:19:43.380Z,40.50
2023-02-09T06:26:45.238Z,40.00
2023-02-09T06:27:45.246Z,40.80
2023-02-09T06:28:45.218Z,39.80
2023-02-09T06:29:45.208Z,46.80
2023-02-09T06:30:45.417Z,44.80
2023-02-09T06:31:45.338Z,41.10
2023-02-09T06:32:45.318Z,41.30
2023-02-09T06:33:45.185Z,39.90
2023-02-09T06:34:45.161Z,38.20
2023-02-09T06:35:45.152Z,40.90
2023-02-09T06:36:45.134Z,38.80
2023-02-09T06:37:45.146Z,35.90
2023-02-09T06:38:45.122Z,39.90
2023-02-09T06:39:45.121Z,39.30
2023-02-09T06:40:45.372Z,37.00
2023-02-09T06:41:45.101Z,33.40
2023-02-09T06:42:45.122Z,40.00
2023-02-09T06:43:45.096Z,41.70
2023-02-09T06:44:45.056Z,39.90
2023-02-09T06:45:45.051Z,39.90
2023-02-09T06:46:45.047Z,40.80
2023-02-09T06:47:45.048Z,41.60
2023-02-09T06:48:45.017Z,43.50
2023-02-09T06:49:45.008Z,41.00
2023-02-09T06:50:45.499Z,39.40
2023-02-09T06:51:44.994Z,38.40
2023-02-09T06:52:45.031Z,42.90
2023-02-09T06:53:45.005Z,40.70
2023-02-09T06:54:45.257Z,39.30
2023-02-09T06:55:44.949Z,35.60
2023-02-09T06:56:44.932Z,36.50
2023-02-09T06:57:44.944Z,36.40
2023-02-09T06:58:44.941Z,35.60
2023-02-09T06:59:44.920Z,38.60
2023-02-09T07:00:45.328Z,37.80
2023-02-09T07:01:44.921Z,35.30
2023-02-09T07:02:44.953Z,32.60
2023-02-09T07:03:44.922Z,38.40
2023-02-09T07:04:44.876Z,35.90
2023-02-09T07:05:44.862Z,34.00
2023-02-09T07:06:44.842Z,36.00
2023-02-09T07:07:44.839Z,33.20
2023-02-09T07:08:44.853Z,35.80
2023-02-09T07:09:44.853Z,36.90
2023-02-09T07:10:45.107Z,38.20
2023-02-09T07:11:44.786Z,39.60
2023-02-09T07:12:44.778Z,35.90
2023-02-09T07:13:44.834Z,39.60
2023-02-09T07:14:44.778Z,37.80
2023-02-09T07:15:44.814Z,34.00
2023-02-09T07:16:44.786Z,34.90
2023-02-09T07:17:44.773Z,40.10
2023-02-09T07:18:44.928Z,36.20
2023-02-09T07:19:44.733Z,33.90
2023-02-09T07:20:45.010Z,35.70
2023-02-09T07:21:44.694Z,31.70
2023-02-09T07:22:44.687Z,37.80
2023-02-09T07:23:44.698Z,35.80
2023-02-09T07:24:44.683Z,36.10
2023-02-09T07:25:44.672Z,31.70
2023-02-09T07:26:44.711Z,35.90
2023-02-09T07:27:44.716Z,40.80
2023-02-09T07:28:44.682Z,38.50
2023-02-09T07:29:44.620Z,38.30
2023-02-09T07:30:45.058Z,34.80
2023-02-09T07:31:44.717Z,36.30
2023-02-09T07:32:44.637Z,36.70
2023-02-09T07:33:44.611Z,34.60
2023-02-09T07:34:44.572Z,38.10
2023-02-09T07:35:44.564Z,41.00
2023-02-09T07:36:47.335Z,44.70
2023-02-09T07:37:44.575Z,45.70
2023-02-09T07:38:44.561Z,40.30
2023-02-09T07:39:44.515Z,39.20
2023-02-09T07:40:44.852Z,41.90
2023-02-09T07:41:44.538Z,43.90
2023-02-09T07:42:44.502Z,45.80
2023-02-09T07:43:44.517Z,40.20
2023-02-09T07:44:44.492Z,35.00
2023-02-09T07:45:44.770Z,40.70
2023-02-09T07:46:44.562Z,40.10
2023-02-09T07:47:44.456Z,35.70
2023-02-09T07:48:44.536Z,37.30
2023-02-09T07:49:44.474Z,38.70
2023-02-09T07:50:44.759Z,39.60
2023-02-09T07:51:44.406Z,38.40
2023-02-09T07:52:44.402Z,38.90
2023-02-09T07:53:44.411Z,38.70
2023-02-09T07:54:44.366Z,36.30
2023-02-09T07:55:44.559Z,36.60
2023-02-09T07:56:44.391Z,37.10
2023-02-09T07:57:44.325Z,38.50
2023-02-09T07:58:44.361Z,41.80
2023-02-09T07:59:44.302Z,41.10
2023-02-09T08:00:44.945Z,42.90
2023-02-09T08:01:44.348Z,42.80
2023-02-09T08:02:44.301Z,46.30
2023-02-09T08:03:44.319Z,42.70
2023-02-09T08:04:44.295Z,41.30
2023-02-09T08:05:44.694Z,47.10
2023-02-09T08:06:44.269Z,50.30
2023-02-09T08:07:44.229Z,42.70
2023-02-09T08:08:44.223Z,36.90
2023-02-09T08:09:44.203Z,35.60
2023-02-09T08:10:44.191Z,33.10
2023-02-09T08:11:45.785Z,29.50
2023-02-09T08:12:44.201Z,32.50
2023-02-09T08:13:44.205Z,31.80
2023-02-09T08:14:44.209Z,29.50
2023-02-09T08:15:44.525Z,31.60
2023-02-09T08:16:44.142Z,29.40
2023-02-09T08:17:44.156Z,30.20
2023-02-09T08:18:44.161Z,28.60
2023-02-09T08:19:44.140Z,29.10
2023-02-09T08:20:44.127Z,32.10
2023-02-09T08:21:44.127Z,29.10
2023-02-09T08:22:44.095Z,30.20
2023-02-09T08:23:44.103Z,28.60
2023-02-09T08:24:44.076Z,32.60
2023-02-09T08:25:44.592Z,26.00
2023-02-09T08:26:44.040Z,27.00
2023-02-09T08:27:44.024Z,26.60
2023-02-09T08:28:44.919Z,30.50
2023-02-09T08:29:44.017Z,28.20
2023-02-09T08:30:44.014Z,30.40
2023-02-09T08:31:44.013Z,26.30
2023-02-09T08:32:44.018Z,25.30
2023-02-09T08:33:44.013Z,23.30
2023-02-09T08:34:43.977Z,25.90
2023-02-09T08:35:44.356Z,27.00
2023-02-09T08:36:43.939Z,27.80
2023-02-09T08:37:43.961Z,29.20
2023-02-09T08:38:43.943Z,26.80
2023-02-09T08:39:43.891Z,32.70
2023-02-09T08:40:43.939Z,30.30
2023-02-09T08:41:46.119Z,29.90
2023-02-09T08:42:43.884Z,28.00
2023-02-09T08:43:43.881Z,30.70
2023-02-09T08:44:43.881Z,26.90
2023-02-09T08:45:44.383Z,31.70
2023-02-09T08:46:44.050Z,30.70
2023-02-09T08:47:43.870Z,31.60
2023-02-09T08:48:43.865Z,30.00
2023-02-09T08:49:43.828Z,31.70
2023-02-09T08:50:43.837Z,29.90
2023-02-09T08:51:43.783Z,34.60
2023-02-09T08:52:43.849Z,30.40
2023-02-09T08:53:43.769Z,30.10
2023-02-09T08:54:43.777Z,30.40
2023-02-09T08:55:44.152Z,29.80
2023-02-09T08:56:43.745Z,29.00
2023-02-09T08:57:44.801Z,30.90
2023-02-09T08:58:43.728Z,29.80
2023-02-09T08:59:43.797Z,28.70
2023-02-09T09:00:43.748Z,32.10
2023-02-09T09:01:43.676Z,26.90
2023-02-09T09:02:43.701Z,30.60
2023-02-09T09:03:43.739Z,28.60
2023-02-09T09:04:43.689Z,28.10
2023-02-09T09:05:43.667Z,27.70
2023-02-09T09:06:43.660Z,29.20
2023-02-09T09:07:43.627Z,30.50
2023-02-09T09:08:43.619Z,26.10
2023-02-09T09:09:43.657Z,29.60
2023-02-09T09:12:10.569Z,24.20
2023-02-09T09:13:10.557Z,31.20
2023-02-09T09:14:10.627Z,27.40
2023-02-09T09:16:49.414Z,24.60
2023-02-09T09:17:32.826Z,27.80
2023-02-09T09:18:34.521Z,26.90
2023-02-09T09:19:32.783Z,25.60
2023-02-09T09:20:32.748Z,24.80
2023-02-09T09:21:32.753Z,24.50
2023-02-09T09:22:32.752Z,27.90
2023-02-09T09:23:32.750Z,24.50
2023-02-09T09:24:32.742Z,27.00
2023-02-09T09:25:32.731Z,25.20
2023-02-09T09:26:32.755Z,23.00
2023-02-09T09:27:32.739Z,22.60
2023-02-09T09:28:32.878Z,23.90
2023-02-09T09:31:05.785Z,20.10
2023-02-09T09:32:20.426Z,22.60
2023-02-09T09:33:05.679Z,25.40
2023-02-09T09:34:05.690Z,22.10
2023-02-09T09:35:07.047Z,21.80
2023-02-09T09:36:05.717Z,21.90
2023-02-09T09:41:03.342Z,18.80
2023-02-09T09:41:53.941Z,17.30
2023-02-09T09:42:53.931Z,17.80
2023-02-09T09:43:53.938Z,17.40
2023-02-09T09:44:54.736Z,18.50
2023-02-09T09:45:54.801Z,19.40
2023-02-09T09:46:53.902Z,17.00
2023-02-09T09:47:53.874Z,17.00
2023-02-09T09:48:55.029Z,17.90
2023-02-09T09:49:54.740Z,16.70
2023-02-09T09:50:53.873Z,13.10
2023-02-09T09:51:53.851Z,15.80
2023-02-09T09:52:53.831Z,14.90
2023-02-09T09:53:53.823Z,13.20
2023-02-09T09:54:53.830Z,13.30
2023-02-09T09:55:53.795Z,13.60
2023-02-09T09:56:53.830Z,13.50
2023-02-09T09:57:55.298Z,13.20
2023-02-09T09:58:53.771Z,12.70
2023-02-09T09:59:53.790Z,14.10
2023-02-09T10:00:53.880Z,12.50
2023-02-09T10:01:53.778Z,12.60
2023-02-09T10:02:53.761Z,12.90
2023-02-09T10:03:53.739Z,13.70
2023-02-09T10:04:53.810Z,13.10
2023-02-09T10:07:31.421Z,12.30
2023-02-09T10:08:30.476Z,11.60
2023-02-09T10:09:30.358Z,12.70
2023-02-09T10:10:30.346Z,13.90
2023-02-09T10:11:30.288Z,12.70
2023-02-09T10:12:30.360Z,12.00
2023-02-09T10:13:44.939Z,11.80
2023-02-09T10:16:01.343Z,12.40
2023-02-09T10:16:56.316Z,13.40
2023-02-09T10:17:56.348Z,12.30
2023-02-09T10:18:56.303Z,12.60
2023-02-09T10:19:56.251Z,12.40
2023-02-09T10:20:56.254Z,12.30
2023-02-09T10:21:56.216Z,12.90
2023-02-09T10:22:56.199Z,12.30
2023-02-09T10:23:56.184Z,12.20
2023-02-09T10:24:56.187Z,13.40
2023-02-09T10:25:56.202Z,11.60
2023-02-09T10:26:56.158Z,11.90
2023-02-09T10:27:56.234Z,11.50
2023-02-09T10:28:56.181Z,11.30
2023-02-09T10:29:56.161Z,12.40
2023-02-09T10:30:56.285Z,10.60
2023-02-09T10:31:56.303Z,11.10
2023-02-09T10:32:56.146Z,12.50
2023-02-09T10:33:56.136Z,11.50
2023-02-09T10:34:56.142Z,13.40
2023-02-09T10:35:56.093Z,10.50
2023-02-09T10:36:56.095Z,10.30
2023-02-09T10:37:56.057Z,13.30
2023-02-09T10:38:56.040Z,11.80
2023-02-09T10:39:56.022Z,11.90
2023-02-09T10:40:56.053Z,11.10
2023-02-09T10:41:56.034Z,10.60
2023-02-09T10:42:55.995Z,11.70
2023-02-09T10:43:56.016Z,11.50
2023-02-09T10:44:56.026Z,11.50
2023-02-09T10:45:56.058Z,11.50
2023-02-09T10:46:55.961Z,10.80
2023-02-09T10:47:55.986Z,10.90
2023-02-09T10:48:55.952Z,11.70
2023-02-09T10:49:55.916Z,12.00
2023-02-09T10:50:55.993Z,10.80
2023-02-09T10:51:55.905Z,12.20
2023-02-09T10:52:55.913Z,9.80
2023-02-09T10:53:55.895Z,10.60
2023-02-09T10:54:55.873Z,10.50
2023-02-09T10:55:55.899Z,11.40
2023-02-09T10:56:55.885Z,11.50
2023-02-09T10:57:55.859Z,12.50
2023-02-09T10:58:55.845Z,9.30
2023-02-09T10:59:55.838Z,12.40
2023-02-09T11:00:55.846Z,11.10
2023-02-09T11:01:55.873Z,11.10
2023-02-09T11:02:55.807Z,11.80
2023-02-09T11:03:55.875Z,12.10
2023-02-09T11:04:55.768Z,12.50
2023-02-09T11:05:55.779Z,12.40
2023-02-09T11:06:55.757Z,12.10
2023-02-09T11:07:55.727Z,11.80
2023-02-09T11:08:55.725Z,11.80
2023-02-09T11:09:55.744Z,12.20
2023-02-09T11:10:55.716Z,11.30
2023-02-09T11:11:55.707Z,11.80
2023-02-09T11:12:55.690Z,11.60
2023-02-09T11:13:55.671Z,10.70
2023-02-09T11:14:55.663Z,10.40
2023-02-09T11:15:55.701Z,11.90
2023-02-09T11:16:55.638Z,11.10
2023-02-09T11:17:55.649Z,10.60
2023-02-09T11:18:55.615Z,9.50
2023-02-09T11:19:55.600Z,10.00
2023-02-09T11:20:55.611Z,11.20
2023-02-09T11:21:55.583Z,10.70
2023-02-09T11:22:55.625Z,11.00
2023-02-09T11:23:55.567Z,10.30
2023-02-09T11:24:55.600Z,13.20
2023-02-09T11:25:55.573Z,10.50
2023-02-09T11:26:55.537Z,12.30
2023-02-09T11:27:55.567Z,11.60
2023-02-09T11:28:55.531Z,10.30
2023-02-09T11:29:55.533Z,10.10
2023-02-09T11:30:55.600Z,10.80
2023-02-09T11:31:55.664Z,10.80
2023-02-09T11:32:55.478Z,10.60
2023-02-09T11:33:55.470Z,10.30
2023-02-09T11:34:55.452Z,10.30
2023-02-09T11:35:55.492Z,10.50
2023-02-09T11:36:55.439Z,10.30
2023-02-09T11:37:55.470Z,11.00
2023-02-09T11:38:55.409Z,9.80
2023-02-09T11:39:55.393Z,9.80
2023-02-09T11:40:55.376Z,10.10
2023-02-09T11:41:55.385Z,9.70
2023-02-09T11:42:55.374Z,10.80
2023-02-09T11:43:55.356Z,10.20
2023-02-09T11:44:55.381Z,10.70
2023-02-09T11:45:55.355Z,9.60
2023-02-09T11:46:55.352Z,9.60
2023-02-09T11:47:55.401Z,10.20
2023-02-09T11:48:55.340Z,10.40
2023-02-09T11:49:55.413Z,10.40
2023-02-09T11:50:55.287Z,10.50
2023-02-09T11:51:55.293Z,11.10
2023-02-09T11:52:55.259Z,10.40
2023-02-09T11:53:55.257Z,9.30
2023-02-09T11:54:55.250Z,10.80
2023-02-09T11:55:55.227Z,10.70
2023-02-09T11:56:55.251Z,9.40
2023-02-09T11:57:55.204Z,10.50
2023-02-09T11:58:55.225Z,9.50
2023-02-09T12:00:04.893Z,10.20
2023-02-09T12:04:15.069Z,10.30
2023-02-09T12:04:50.417Z,10.00
2023-02-09T12:05:50.227Z,9.90
2023-02-09T12:06:49.892Z,9.80
2023-02-09T12:07:50.461Z,9.50
2023-02-09T12:08:50.400Z,9.80
2023-02-09T12:09:49.822Z,10.10
2023-02-09T12:10:49.788Z,10.00
2023-02-09T12:11:49.837Z,10.90
2023-02-09T12:12:49.980Z,9.90
2023-02-09T12:16:50.364Z,10.20
2023-02-09T12:17:49.332Z,9.70
2023-02-09T12:18:49.426Z,9.30
2023-02-09T12:19:51.965Z,10.60
2023-02-09T12:20:49.325Z,10.20
2023-02-09T12:21:49.301Z,10.00
2023-02-09T12:22:49.270Z,9.60
2023-02-09T12:23:49.280Z,9.50
2023-02-09T12:24:49.347Z,9.20
2023-02-09T12:25:51.314Z,11.10
2023-02-09T12:26:49.251Z,10.10
2023-02-09T12:27:49.264Z,10.80
2023-02-09T12:28:49.228Z,9.70
2023-02-09T12:29:49.226Z,11.20
2023-02-09T12:30:49.491Z,9.70
2023-02-09T12:31:49.347Z,9.50
2023-02-09T12:32:49.203Z,9.70
2023-02-09T12:33:49.195Z,10.40
2023-02-09T12:34:49.159Z,9.80
2023-02-09T12:35:49.176Z,10.20
2023-02-09T12:36:49.201Z,10.10
2023-02-09T12:37:49.172Z,10.10
2023-02-09T12:38:50.271Z,9.70
2023-02-09T12:39:49.100Z,10.60
2023-02-09T12:40:49.136Z,10.60
2023-02-09T12:41:49.204Z,10.80
2023-02-09T12:42:49.102Z,10.10
2023-02-09T12:43:49.074Z,9.80
2023-02-09T12:44:49.051Z,10.40
2023-02-09T12:45:49.423Z,11.00
2023-02-09T12:46:49.050Z,9.50
2023-02-09T12:47:49.091Z,10.00
2023-02-09T12:48:49.013Z,9.60
2023-02-09T12:49:49.045Z,11.00
2023-02-09T12:50:49.030Z,9.90
2023-02-09T12:51:48.985Z,10.00
2023-02-09T12:52:48.988Z,10.40
2023-02-09T12:53:48.987Z,10.40
2023-02-09T12:54:48.977Z,10.80
2023-02-09T12:55:49.810Z,10.20
2023-02-09T12:56:48.939Z,12.10
2023-02-09T12:57:48.972Z,10.50
2023-02-09T12:58:48.941Z,10.50
2023-02-09T12:59:48.951Z,10.40
2023-02-09T13:00:49.012Z,10.70
2023-02-09T13:01:48.921Z,11.20
2023-02-09T13:02:48.920Z,10.70
2023-02-09T13:03:49.021Z,11.00
2023-02-09T13:04:48.851Z,10.80
2023-02-09T13:05:49.186Z,10.90
2023-02-09T13:06:48.831Z,10.70
2023-02-09T13:07:48.885Z,10.90
2023-02-09T13:08:48.835Z,12.00
2023-02-09T13:09:48.811Z,10.90
2023-02-09T13:10:48.819Z,11.10
2023-02-09T13:11:48.778Z,11.40
2023-02-09T13:12:48.815Z,12.70
2023-02-09T13:13:48.787Z,11.40
2023-02-09T13:14:48.774Z,11.40
2023-02-09T13:15:48.786Z,11.40
2023-02-09T13:16:48.861Z,11.70
2023-02-09T13:17:48.766Z,12.10